createdAt,value
2019-02-10T00:01:42.068Z,10.97
2019-02-10T00:04:10.686Z,19.57
2019-02-10T00:06:39.194Z,15.77
2019-02-10T00:09:07.640Z,12.83
2019-02-10T00:11:36.337Z,13.57
2019-02-10T00:14:04.831Z,13.17
2019-02-10T00:16:33.720Z,12.20
2019-02-10T00:19:02.156Z,11.63
2019-02-10T00:21:30.737Z,11.03
2019-02-10T00:23:59.218Z,13.40
2019-02-10T00:26:27.612Z,13.03
2019-02-10T00:28:56.160Z,12.67
2019-02-10T00:31:24.774Z,13.87
2019-02-10T00:33:53.234Z,12.80
2019-02-10T00:36:22.169Z,18.80
2019-02-10T00:38:51.202Z,11.83
2019-02-10T00:41:20.162Z,20.33
2019-02-10T00:43:48.816Z,14.57
2019-02-10T00:46:17.436Z,15.20
2019-02-10T00:48:45.985Z,8.00
2019-02-10T00:51:14.443Z,17.07
2019-02-10T00:53:43.105Z,15.57
2019-02-10T00:56:11.624Z,16.27
2019-02-10T00:58:40.145Z,23.17
2019-02-10T01:01:08.578Z,15.67
2019-02-10T01:03:37.304Z,13.43
2019-02-10T01:06:05.892Z,15.63
2019-02-10T01:08:41.040Z,15.10
2019-02-10T01:11:09.917Z,16.33
2019-02-10T01:13:38.396Z,14.77
2019-02-10T01:16:07.133Z,12.53
2019-02-10T01:18:35.718Z,11.50
2019-02-10T01:21:04.615Z,16.37
2019-02-10T01:23:34.452Z,12.57
2019-02-10T01:26:03.233Z,13.50
2019-02-10T01:28:31.816Z,15.83
2019-02-10T01:31:00.331Z,16.87
2019-02-10T01:33:28.835Z,18.33
2019-02-10T01:35:57.462Z,14.47
2019-02-10T01:38:25.980Z,10.13
2019-02-10T01:40:55.079Z,11.13
2019-02-10T01:43:24.010Z,11.73
2019-02-10T01:45:53.473Z,12.20
2019-02-10T01:48:22.368Z,12.30
2019-02-10T01:50:51.034Z,11.43
2019-02-10T01:53:19.799Z,15.20
2019-02-10T01:55:49.037Z,11.77
2019-02-10T01:58:17.411Z,12.10
2019-02-10T02:00:45.897Z,13.90
2019-02-10T02:03:14.595Z,11.97
2019-02-10T02:05:44.130Z,8.33
2019-02-10T02:08:12.737Z,14.63
2019-02-10T02:10:41.598Z,9.67
2019-02-10T02:13:10.094Z,12.83
2019-02-10T02:15:38.547Z,12.37
2019-02-10T02:18:07.146Z,7.43
2019-02-10T02:20:35.682Z,14.37
2019-02-10T02:23:04.436Z,14.30
2019-02-10T02:25:32.980Z,14.07
2019-02-10T02:28:01.610Z,15.40
2019-02-10T02:30:30.229Z,15.03
2019-02-10T02:32:58.725Z,11.47
2019-02-10T02:35:27.291Z,12.97
2019-02-10T02:37:55.759Z,13.57
2019-02-10T02:40:24.684Z,13.60
2019-02-10T02:42:53.543Z,10.70
2019-02-10T02:45:22.007Z,13.33
2019-02-10T02:47:50.594Z,13.50
2019-02-10T02:50:20.090Z,10.70
2019-02-10T02:52:48.760Z,17.20
2019-02-10T02:55:17.308Z,10.63
2019-02-10T02:57:45.863Z,12.40
2019-02-10T03:00:14.851Z,13.23
2019-02-10T03:02:44.586Z,9.70
2019-02-10T03:05:13.161Z,14.53
2019-02-10T03:07:41.834Z,10.13
2019-02-10T03:10:10.636Z,9.60
2019-02-10T03:12:39.292Z,11.63
2019-02-10T03:15:08.134Z,11.37
2019-02-10T03:17:36.987Z,9.43
2019-02-10T03:20:05.859Z,18.20
2019-02-10T03:22:34.821Z,11.73
2019-02-10T03:25:03.476Z,14.63
2019-02-10T03:27:32.222Z,9.30
2019-02-10T03:30:00.854Z,13.97
2019-02-10T03:32:29.434Z,13.03
2019-02-10T03:34:58.215Z,13.60
2019-02-10T03:37:27.654Z,10.60
2019-02-10T03:39:56.365Z,10.60
2019-02-10T03:42:24.977Z,10.47
2019-02-10T03:44:53.953Z,10.00
2019-02-10T03:47:22.502Z,9.73
2019-02-10T03:49:51.110Z,10.60
2019-02-10T03:52:19.594Z,8.83
2019-02-10T03:54:48.715Z,10.40
2019-02-10T03:57:17.447Z,12.77
2019-02-10T03:59:46.053Z,15.07
2019-02-10T04:02:14.814Z,13.80
2019-02-10T04:04:43.477Z,10.97
2019-02-10T04:07:12.133Z,15.53
2019-02-10T04:09:40.682Z,11.17
2019-02-10T04:12:09.243Z,10.23
2019-02-10T04:14:37.863Z,13.47
2019-02-10T04:17:06.619Z,10.13
2019-02-10T04:19:35.424Z,12.33
2019-02-10T04:22:04.216Z,11.10
2019-02-10T04:24:32.805Z,11.63
2019-02-10T04:27:01.451Z,9.57
2019-02-10T04:29:29.999Z,13.37
2019-02-10T04:31:58.442Z,10.13
2019-02-10T04:34:27.005Z,12.80
2019-02-10T04:36:55.849Z,12.50
2019-02-10T04:39:24.420Z,15.80
2019-02-10T04:41:52.918Z,17.77
2019-02-10T04:44:21.973Z,10.73
2019-02-10T04:46:50.697Z,13.77
2019-02-10T04:49:19.374Z,9.57
2019-02-10T04:51:48.049Z,15.33
2019-02-10T04:54:16.758Z,11.13
2019-02-10T04:56:45.213Z,12.93
2019-02-10T04:59:13.796Z,13.57
2019-02-10T05:01:43.454Z,12.93
2019-02-10T05:04:12.019Z,15.03
2019-02-10T05:06:40.564Z,14.43
2019-02-10T05:09:09.110Z,12.53
2019-02-10T05:11:37.763Z,10.23
2019-02-10T05:14:06.800Z,17.47
2019-02-10T05:16:35.415Z,8.57
2019-02-10T05:19:03.876Z,8.93
2019-02-10T05:21:32.387Z,11.63
2019-02-10T05:24:03.552Z,12.30
2019-02-10T05:26:31.357Z,9.30
2019-02-10T05:28:59.671Z,11.77
2019-02-10T05:31:28.064Z,15.00
2019-02-10T05:33:56.686Z,13.93
2019-02-10T05:36:25.250Z,12.83
2019-02-10T05:38:53.919Z,14.93
2019-02-10T05:41:22.607Z,14.13
2019-02-10T05:43:51.358Z,15.77
2019-02-10T05:46:19.932Z,11.30
2019-02-10T05:48:48.645Z,8.13
2019-02-10T05:51:17.732Z,12.13
2019-02-10T05:53:46.783Z,11.20
2019-02-10T05:56:15.850Z,15.37
2019-02-10T05:58:44.836Z,11.97
2019-02-10T06:02:00.563Z,12.90
2019-02-10T06:04:30.312Z,10.40
2019-02-10T06:07:02.898Z,12.13
2019-02-10T06:09:31.910Z,7.90
2019-02-10T06:12:00.421Z,15.00
2019-02-10T06:14:29.159Z,11.83
2019-02-10T06:16:57.663Z,13.37
2019-02-10T06:19:26.132Z,8.93
2019-02-10T06:21:55.037Z,8.50
2019-02-10T06:24:24.033Z,12.37
2019-02-10T06:26:54.701Z,17.63
2019-02-10T06:29:25.293Z,10.77
2019-02-10T06:31:53.865Z,15.73
2019-02-10T06:34:22.514Z,12.60
2019-02-10T06:36:51.108Z,18.00
2019-02-10T06:39:19.662Z,13.27
2019-02-10T06:41:48.279Z,11.37
2019-02-10T06:44:17.369Z,12.97
2019-02-10T06:46:46.108Z,17.17
2019-02-10T06:49:14.841Z,8.63
2019-02-10T06:51:44.692Z,11.10
2019-02-10T06:54:13.269Z,11.40
2019-02-10T06:56:41.748Z,14.53
2019-02-10T06:59:22.325Z,12.17
2019-02-10T07:01:55.825Z,12.60
2019-02-10T07:04:27.123Z,14.40
2019-02-10T07:06:55.991Z,9.93
2019-02-10T07:09:27.299Z,11.63
2019-02-10T07:11:55.936Z,16.90
2019-02-10T07:14:38.201Z,12.67
2019-02-10T07:17:48.249Z,12.67
2019-02-10T07:20:41.623Z,12.73
2019-02-10T07:24:25.230Z,12.53
2019-02-10T07:26:55.408Z,8.30
2019-02-10T07:30:34.630Z,11.47
2019-02-10T07:34:10.132Z,6.63
2019-02-10T07:37:11.512Z,11.00
2019-02-10T07:40:42.936Z,8.90
2019-02-10T07:44:04.667Z,8.30
2019-02-10T07:47:26.224Z,10.40
2019-02-10T07:50:44.649Z,6.23
2019-02-10T07:53:59.088Z,13.23
2019-02-10T07:57:14.790Z,6.67
2019-02-10T08:00:13.654Z,10.80
2019-02-10T08:03:25.328Z,7.47
2019-02-10T08:06:53.450Z,7.17
2019-02-10T08:10:32.032Z,10.60
2019-02-10T08:14:00.752Z,8.23
2019-02-10T08:17:11.738Z,5.87
2019-02-10T08:20:50.914Z,10.33
2019-02-10T08:24:10.707Z,7.93
2019-02-10T08:27:35.113Z,6.47
2019-02-10T08:30:48.282Z,9.67
2019-02-10T08:33:35.271Z,9.13
2019-02-10T08:36:51.479Z,10.77
2019-02-10T08:40:15.204Z,8.53
2019-02-10T08:43:45.753Z,6.30
2019-02-10T08:47:00.151Z,6.93
2019-02-10T08:50:26.427Z,7.83
2019-02-10T08:53:04.051Z,8.97
2019-02-10T08:55:32.606Z,3.40
2019-02-10T08:58:01.751Z,11.90
2019-02-10T09:00:31.243Z,4.87
2019-02-10T09:03:01.909Z,7.07
2019-02-10T09:05:30.676Z,10.67
2019-02-10T09:07:59.571Z,9.67
2019-02-10T09:10:28.197Z,11.73
2019-02-10T09:12:56.693Z,9.77
2019-02-10T09:15:25.258Z,9.43
2019-02-10T09:17:53.836Z,8.70
2019-02-10T09:20:23.117Z,5.53
2019-02-10T09:22:53.611Z,8.33
2019-02-10T09:25:22.792Z,8.70
2019-02-10T09:27:51.397Z,8.37
2019-02-10T09:30:19.978Z,10.97
2019-02-10T09:32:49.689Z,6.57
2019-02-10T09:35:18.885Z,6.57
2019-02-10T09:37:47.658Z,5.77
2019-02-10T09:40:16.371Z,8.33
2019-02-10T09:42:44.927Z,5.67
2019-02-10T09:45:15.302Z,9.53
2019-02-10T09:47:44.066Z,8.47
2019-02-10T09:50:16.130Z,7.93
2019-02-10T09:52:44.954Z,6.57
2019-02-10T09:55:13.426Z,5.77
2019-02-10T09:57:42.395Z,5.77
2019-02-10T10:00:13.535Z,9.20
2019-02-10T10:02:42.111Z,9.57
2019-02-10T10:05:11.587Z,4.97
2019-02-10T10:07:41.026Z,4.10
2019-02-10T10:10:11.554Z,3.63
2019-02-10T10:12:40.155Z,7.17
2019-02-10T10:15:13.976Z,5.27
2019-02-10T10:17:43.324Z,6.37
2019-02-10T10:20:14.424Z,6.93
2019-02-10T10:22:43.165Z,8.80
2019-02-10T10:25:12.123Z,6.00
2019-02-10T10:27:41.371Z,5.77
2019-02-10T10:30:13.920Z,4.87
2019-02-10T10:32:43.179Z,8.00
2019-02-10T10:35:11.626Z,4.23
2019-02-10T10:37:40.705Z,5.03
2019-02-10T10:40:09.657Z,3.67
2019-02-10T10:42:38.439Z,4.63
2019-02-10T10:45:18.060Z,6.00
2019-02-10T10:47:46.958Z,2.93
2019-02-10T10:50:16.412Z,2.80
2019-02-10T10:52:45.012Z,3.60
2019-02-10T10:55:13.977Z,4.20
2019-02-10T10:57:43.044Z,1.93
2019-02-10T11:00:12.683Z,2.77
2019-02-10T11:02:41.444Z,5.00
2019-02-10T11:05:11.122Z,6.40
2019-02-10T11:07:40.012Z,4.57
2019-02-10T11:10:09.021Z,4.80
2019-02-10T11:12:38.368Z,3.57
2019-02-10T11:15:17.284Z,4.83
2019-02-10T11:17:46.145Z,3.13
2019-02-10T11:20:14.611Z,5.47
2019-02-10T11:22:43.249Z,4.10
2019-02-10T11:25:11.993Z,3.27
2019-02-10T11:27:40.618Z,4.43
2019-02-10T11:30:09.999Z,3.63
2019-02-10T11:32:38.507Z,3.27
2019-02-10T11:35:07.589Z,3.97
2019-02-10T11:37:36.050Z,2.50
2019-02-10T11:40:05.178Z,2.87
2019-02-10T11:42:33.768Z,4.60
2019-02-10T11:45:04.946Z,6.10
2019-02-10T11:47:33.670Z,4.27
2019-02-10T11:50:02.623Z,4.63
2019-02-10T11:52:31.551Z,2.57
2019-02-10T11:55:00.468Z,5.03
2019-02-10T11:57:29.286Z,4.63
2019-02-10T11:59:57.801Z,4.17
2019-02-10T12:02:26.718Z,3.50
2019-02-10T12:04:55.183Z,4.07
2019-02-10T12:07:24.007Z,4.70
2019-02-10T12:09:53.018Z,3.03
2019-02-10T12:12:21.644Z,2.83
2019-02-10T12:14:50.195Z,3.30
2019-02-10T12:17:18.829Z,3.50
2019-02-10T12:19:47.313Z,2.70
2019-02-10T12:22:16.157Z,3.80
2019-02-10T12:24:44.807Z,2.57
2019-02-10T12:27:13.196Z,2.43
2019-02-10T12:29:41.911Z,3.93
2019-02-10T12:32:10.602Z,3.13
2019-02-10T12:34:40.262Z,3.30
2019-02-10T12:37:09.334Z,3.30
2019-02-10T12:39:37.917Z,2.70
2019-02-10T12:42:06.431Z,3.33
2019-02-10T12:44:35.178Z,4.40
2019-02-10T12:47:03.693Z,3.90
2019-02-10T12:49:33.011Z,3.57
2019-02-10T12:52:01.613Z,3.43
2019-02-10T12:54:29.982Z,3.43
2019-02-10T12:56:58.649Z,3.80
2019-02-10T12:59:27.303Z,4.60
2019-02-10T13:01:55.911Z,3.70
2019-02-10T13:04:24.409Z,4.27
2019-02-10T13:06:53.173Z,3.67
2019-02-10T13:09:21.670Z,5.00
2019-02-10T13:11:50.134Z,4.10
2019-02-10T13:14:18.670Z,5.03
2019-02-10T13:16:47.128Z,4.83
2019-02-10T13:19:16.010Z,4.47
2019-02-10T13:21:44.996Z,4.47
2019-02-10T13:24:13.820Z,5.00
2019-02-10T13:26:42.471Z,5.53
2019-02-10T13:29:12.697Z,4.90
2019-02-10T13:31:41.591Z,4.67
2019-02-10T13:34:10.498Z,5.40
2019-02-10T13:36:39.081Z,5.03
2019-02-10T13:39:09.371Z,4.93
2019-02-10T13:41:37.242Z,4.67
2019-02-10T13:44:06.410Z,5.00
2019-02-10T13:46:34.995Z,4.60
2019-02-10T13:49:04.161Z,5.33
2019-02-10T13:51:33.241Z,5.07
2019-02-10T13:54:01.752Z,6.63
2019-02-10T13:56:30.440Z,5.20
2019-02-10T13:58:59.030Z,4.63
2019-02-10T14:01:27.756Z,4.20
2019-02-10T14:03:56.538Z,5.03
2019-02-10T14:06:25.508Z,4.53
2019-02-10T14:08:54.107Z,4.63
2019-02-10T14:11:22.905Z,5.30
2019-02-10T14:13:52.104Z,5.30
2019-02-10T14:16:21.620Z,4.80
2019-02-10T14:18:51.028Z,4.70
2019-02-10T14:21:20.027Z,4.63
2019-02-10T14:23:48.800Z,4.20
2019-02-10T14:26:18.201Z,4.60
2019-02-10T14:28:46.761Z,4.40
2019-02-10T14:31:15.550Z,5.70
2019-02-10T14:33:44.191Z,5.70
2019-02-10T14:36:12.660Z,6.87
2019-02-10T14:38:41.191Z,6.37
2019-02-10T14:41:09.749Z,5.63
2019-02-10T14:43:38.208Z,4.17
2019-02-10T14:46:06.735Z,5.90
2019-02-10T14:48:35.605Z,5.03
2019-02-10T14:51:04.191Z,4.97
2019-02-10T14:53:32.817Z,4.67
2019-02-10T14:56:01.617Z,5.43
2019-02-10T14:58:30.166Z,5.00
2019-02-10T15:00:58.710Z,5.50
2019-02-10T15:03:27.515Z,4.87
2019-02-10T15:05:56.100Z,6.07
2019-02-10T15:08:24.964Z,7.43
2019-02-10T15:10:53.846Z,6.43
2019-02-10T15:13:22.543Z,5.63
2019-02-10T15:15:50.981Z,6.20
2019-02-10T15:18:19.629Z,4.53
2019-02-10T15:20:48.160Z,4.60
2019-02-10T15:23:17.538Z,4.93
2019-02-10T15:25:46.358Z,4.43
2019-02-10T15:28:15.896Z,5.10
2019-02-10T15:30:44.585Z,4.80
2019-02-10T15:33:13.693Z,3.83
2019-02-10T15:35:42.261Z,4.30
2019-02-10T15:38:10.641Z,5.23
2019-02-10T15:40:40.685Z,4.53
2019-02-10T15:43:09.652Z,3.53
2019-02-10T15:45:38.418Z,3.17
2019-02-10T15:48:07.490Z,4.33
2019-02-10T15:50:37.131Z,3.23
2019-02-10T15:53:05.694Z,3.10
2019-02-10T15:55:34.394Z,2.70
2019-02-10T15:58:03.381Z,3.40
2019-02-10T16:00:32.214Z,2.57
2019-02-10T16:03:01.174Z,2.40
2019-02-10T16:05:29.652Z,3.33
2019-02-10T16:07:58.221Z,2.93
2019-02-10T16:10:26.600Z,2.57
2019-02-10T16:12:55.329Z,2.40
2019-02-10T16:15:24.383Z,2.70
2019-02-10T16:17:52.919Z,2.70
2019-02-10T16:20:21.711Z,3.57
2019-02-10T16:22:50.630Z,3.10
2019-02-10T16:25:19.801Z,2.50
2019-02-10T16:27:48.290Z,2.00
2019-02-10T16:30:17.256Z,2.77
2019-02-10T16:32:50.013Z,2.23
2019-02-10T16:35:16.564Z,2.37
2019-02-10T16:37:45.471Z,2.10
2019-02-10T16:40:16.157Z,2.17
2019-02-10T16:42:44.773Z,4.17
2019-02-10T16:45:18.897Z,3.17
2019-02-10T16:47:47.399Z,2.37
2019-02-10T16:50:15.930Z,1.67
2019-02-10T16:52:45.102Z,1.97
2019-02-10T16:55:14.394Z,2.30
2019-02-10T16:57:42.939Z,2.13
2019-02-10T17:00:13.479Z,2.67
2019-02-10T17:02:42.675Z,2.33
2019-02-10T17:05:11.916Z,2.77
2019-02-10T17:07:44.831Z,2.30
2019-02-10T17:10:13.630Z,2.57
2019-02-10T17:12:42.311Z,3.67
2019-02-10T17:15:24.492Z,3.73
2019-02-10T17:17:53.327Z,2.60
2019-02-10T17:20:21.906Z,4.37
2019-02-10T17:22:50.710Z,1.87
2019-02-10T17:25:19.292Z,3.27
2019-02-10T17:27:49.191Z,2.87
2019-02-10T17:30:36.380Z,4.80
2019-02-10T17:33:05.469Z,4.83
2019-02-10T17:35:34.244Z,2.70
2019-02-10T17:38:02.815Z,3.00
2019-02-10T17:40:39.958Z,2.30
2019-02-10T17:43:11.279Z,2.30
2019-02-10T17:45:40.477Z,1.77
2019-02-10T17:48:10.750Z,1.70
2019-02-10T17:50:39.707Z,1.07
2019-02-10T17:53:09.948Z,0.80
2019-02-10T17:55:39.180Z,1.27
2019-02-10T17:58:07.632Z,0.67
2019-02-10T18:00:40.441Z,3.57
2019-02-10T18:03:08.996Z,1.10
2019-02-10T18:05:38.016Z,0.80
2019-02-10T18:08:06.496Z,0.70
2019-02-10T18:10:35.198Z,0.63
2019-02-10T18:13:03.835Z,0.50
2019-02-10T18:16:11.391Z,0.60
2019-02-10T18:19:06.363Z,0.53
2019-02-10T18:21:50.043Z,0.30
2019-02-10T18:24:43.780Z,0.60
2019-02-10T18:27:32.227Z,0.40
2019-02-10T18:30:26.323Z,1.37
2019-02-10T18:33:21.939Z,1.10
2019-02-10T18:35:59.239Z,0.63
2019-02-10T18:38:56.647Z,0.50
2019-02-10T18:41:40.982Z,2.87
2019-02-10T18:44:27.541Z,1.03
2019-02-10T18:47:06.596Z,0.60
2019-02-10T18:49:57.403Z,1.90
2019-02-10T18:52:48.538Z,0.67
2019-02-10T18:55:35.236Z,2.70
2019-02-10T18:58:22.482Z,0.40
2019-02-10T19:01:19.259Z,0.63
2019-02-10T19:04:14.302Z,1.23
2019-02-10T19:07:06.226Z,0.70
2019-02-10T19:09:48.082Z,0.53
2019-02-10T19:12:26.111Z,0.87
2019-02-10T19:15:17.110Z,0.80
2019-02-10T19:18:03.982Z,0.43
2019-02-10T19:20:52.069Z,0.40
2019-02-10T19:23:46.426Z,0.63
2019-02-10T19:26:22.739Z,0.70
2019-02-10T19:29:20.060Z,0.57
2019-02-10T19:31:56.288Z,0.60
2019-02-10T19:34:51.233Z,2.10
2019-02-10T19:37:44.782Z,1.07
2019-02-10T19:40:42.919Z,1.47
2019-02-10T19:43:22.061Z,0.53
2019-02-10T19:46:12.771Z,0.80
2019-02-10T19:49:01.062Z,1.00
2019-02-10T19:51:56.078Z,0.70
2019-02-10T19:54:44.188Z,1.07
2019-02-10T19:57:50.947Z,1.53
2019-02-10T20:00:35.524Z,2.03
2019-02-10T20:03:25.296Z,1.03
2019-02-10T20:06:10.349Z,1.17
2019-02-10T20:09:04.643Z,2.00
2019-02-10T20:12:03.765Z,1.50
2019-02-10T20:14:38.301Z,1.83
2019-02-10T20:17:31.259Z,1.27
2019-02-10T20:20:22.861Z,2.30
2019-02-10T20:23:24.902Z,1.40
2019-02-10T20:26:07.222Z,1.30
2019-02-10T20:28:58.136Z,1.40
2019-02-10T20:31:45.348Z,1.40
2019-02-10T20:34:42.643Z,1.17
2019-02-10T20:37:20.132Z,1.87
2019-02-10T20:40:02.159Z,1.53
2019-02-10T20:43:02.454Z,1.60
2019-02-10T20:45:43.189Z,1.60
2019-02-10T20:48:31.375Z,1.70
2019-02-10T20:51:14.956Z,4.20
2019-02-10T20:53:51.303Z,4.83
2019-02-10T20:56:30.397Z,3.33
2019-02-10T20:59:17.074Z,5.20
2019-02-10T21:02:08.111Z,3.63
2019-02-10T21:04:55.200Z,3.73
2019-02-10T21:07:48.814Z,3.33
2019-02-10T21:10:37.851Z,3.77
2019-02-10T21:13:19.667Z,5.40
2019-02-10T21:16:22.891Z,4.37
2019-02-10T21:18:59.421Z,5.93
2019-02-10T21:21:42.256Z,5.50
2019-02-10T21:24:18.296Z,7.60
2019-02-10T21:27:06.405Z,10.37
2019-02-10T21:29:46.516Z,6.40
2019-02-10T21:32:21.850Z,6.43
2019-02-10T21:35:13.293Z,11.83
2019-02-10T21:37:47.679Z,15.60
2019-02-10T21:40:35.779Z,15.53
2019-02-10T21:43:21.786Z,18.67
2019-02-10T21:45:55.866Z,13.27
2019-02-10T21:48:47.095Z,14.93
2019-02-10T21:51:15.708Z,20.50
2019-02-10T21:53:44.482Z,13.07
2019-02-10T21:56:12.962Z,21.73
2019-02-10T21:58:41.488Z,23.33
2019-02-10T22:01:10.133Z,27.80
2019-02-10T22:03:38.833Z,21.53
2019-02-10T22:06:07.366Z,26.57
2019-02-10T22:08:36.372Z,12.03
2019-02-10T22:11:05.150Z,23.93
2019-02-10T22:13:33.567Z,17.60
2019-02-10T22:16:02.274Z,14.33
2019-02-10T22:18:31.565Z,18.33
2019-02-10T22:21:00.299Z,15.00
2019-02-10T22:23:29.351Z,28.10
2019-02-10T22:25:57.926Z,24.03
2019-02-10T22:28:26.810Z,17.43
2019-02-10T22:30:55.274Z,25.70
2019-02-10T22:33:24.247Z,22.73
2019-02-10T22:35:52.834Z,20.70
2019-02-10T22:38:21.310Z,19.30
2019-02-10T22:40:50.331Z,16.27
2019-02-10T22:43:19.258Z,17.10
2019-02-10T22:45:47.805Z,11.90
2019-02-10T22:48:16.821Z,14.87
2019-02-10T22:50:46.189Z,17.03
2019-02-10T22:53:14.864Z,10.87
2019-02-10T22:55:43.430Z,11.37
2019-02-10T22:58:11.997Z,11.43
2019-02-10T23:00:52.283Z,12.67
2019-02-10T23:03:21.059Z,18.17
2019-02-10T23:05:50.040Z,7.73
2019-02-10T23:08:20.458Z,16.83
2019-02-10T23:10:49.708Z,15.13
2019-02-10T23:13:18.230Z,13.77
2019-02-10T23:15:47.072Z,15.37
2019-02-10T23:18:15.549Z,11.10
2019-02-10T23:20:44.496Z,14.20
2019-02-10T23:23:13.174Z,13.50
2019-02-10T23:25:41.680Z,10.90
2019-02-10T23:28:10.144Z,7.43
2019-02-10T23:30:38.945Z,12.03
2019-02-10T23:33:07.633Z,6.93
2019-02-10T23:35:36.411Z,20.27
2019-02-10T23:38:04.983Z,16.43
2019-02-10T23:40:33.523Z,6.80
2019-02-10T23:43:02.530Z,10.63
2019-02-10T23:45:31.056Z,14.50
2019-02-10T23:47:59.987Z,12.47
2019-02-10T23:50:28.594Z,11.13
2019-02-10T23:52:56.939Z,7.87
2019-02-10T23:55:25.598Z,13.47
2019-02-10T23:57:54.310Z,14.47
